Timeline UpdatesTrip UpdatesNews PostsPvt PostsTravel TipsAdmin PostsConv PostsFollowed PostsChat RequestsBlog PostsPNR Posts

Disclaimer
Search
 
 
Thu Jul 31, 2014 12:57:44 ISTHomeTrainsΣChainsAtlasPNRForumGalleryNewsFAQTripsMembersLoginFeedback
No Recent News for this Train
Other Trains in the News **new
Latest...
.
Thu Jul 24, 2014 (11:10PM)
⇐ Return Journey: Train# 19019

19020/Dehradun - Mumbai Bandra Terminus Express

Apr 15 2014 (1:35PM)
Change Departure Station:
Change Arrival Station:
Post a Train Travel TipPost a Train Travel Tip **new
Post a Comment/Question/Picture/VideoPost a Comment/Question/Picture/Video
Pantry/Catering
✕ NO Pantry Car
✓ Catering Avbl
Loco/Rake Reversals
SRE/Saharanpur Junction (6); LRJ/Laksar Junction (4);
RSA - Rake Sharing
Rake/Coach Composition
LOCO-SLR-HCPV-GEN-GEN-AB1-S1-S2-S3-S4-S5-S6-S7-S8-S9-SLR
Loco
GZB WAP-7 NZM-BDTS. ddn to nzm tkd wdp 3a. By Er...
Read more...
Ankit Shotra Bhagat Entry# 595554
News    PNR    Forum    Time-Table    Availability    Fare Chart    Map    Arr/Dep History    Trips    Gallery    ΣChains    X/O    Timeline    
Travel Time: 6h 25m    18 halts    Distance: 267 km    Avg Speed: 41 km/hr
Type: Mail/Express
Zone: WR/Western
Departs @ 07:50 (Avg 13m late)
Platform# 2
SMTWTFS
Kota Junction/KOTA 
Arrives @ 14:15 (Avg 6m late)
Platform# 4
SMTWTFS
Ratlam Junction/RTM 

18 halts. 33 intermediate Stations between Kota Junction and Ratlam Junction

Show ALL intermediate Stations  Show Old Time-Table

#CodeStation NameX/OArrivesAvgDepartsAvgHaltPFDay#KmSpeedElevZoneAddress
1DDNDehradun (4)  -10:35+021-773.141648mNRDehradun, Uttarakhand
2DWODoiwala  11:04+411:06+42m--1-753.339484mNRDehradun, Uttarakhand
3RWLRaiwala Junction (2)X  11:38+411:40+172m21-732.620361mNRRishikesh, Uttarakhand
4MOTCMotichur (2)X  12:00+912:02+112m11-726.021312mNRHaridwar, Uttarakhand
5HWHaridwar Junction (9)X  12:15+912:45+1130m31-721.430294mNRHaridwar, Uttarakhand
6JWPJwalapurX  12:53+1312:55+142m--1-717.521292mNRHaridwar, Uttarakhand
7LRJLaksar Junction (4)X14:00+514:25+525m--1-694.559238mNRLaksar, Uttarakhand
8RKRoorkee (3)X  14:43+814:45+92m31-676.742264mNRRoorkee - 247667, Uttarakhand
9SRESaharanpur Junction (6)X15:35+316:05+030m41-642.046276mNRSaharanpur, Uttar Pradesh
10DBDDeoband (2)  16:50+416:52+62m21-607.851258mNRSaharanpur, Uttar Pradesh
11MOZMuzaffarnagar (3)X  17:20+517:22+212m21-583.867247mNRMuzaffarNagar, Uttar Pradesh
12KATKhatauli (2)  17:42+2417:44+252m11-561.673239mNRKhatauli, Uttar Pradesh
13MUTMeerut Cantt. (2)  18:08+3018:10+302m11-532.510230mNRMeerut, Uttar Pradesh
14MTCMeerut City Junction (6)X18:35+1419:20+745m41-528.283229mNRMeerut, Uttar Pradesh
15MDNRModinagar (2)X  19:34+1319:36+132m21-508.767221mNRGhaziabad, Uttar Pradesh
16MUDMuradnagar (2)  19:45+1419:47+142m21-498.647220mNRGhaziabad, Uttar Pradesh
17GZNNew Ghaziabad (2)X  20:02+320:04+32m21-486.914213mNRGhaziabad, Uttar Pradesh
18GZBGhaziabad Junction (6)X  20:30+220:32+32m41-481.045217mNRGhaziabad, Uttar Pradesh
19SBBSahibabad Junction (5)X  20:41+920:43+92m--1-474.330209mNRGhaziabad, Uttar Pradesh
20NZMDelhi Hazrat Nizamuddin (7)O21:15+1521:55+1140m11-458.225209mNRNizamuddin East/Sarai KaleKhan Bus Terminal, Delhi NCT
21TKDTuglakabad (4)XO  22:18+922:20+122m--1-448.528213mNRNear Tughlakabad Metro Station, Delhi NCT
22FDBFaridabad (4)  22:44+722:46+92m31-437.440206mNRold Faridabad, Haryana
23BVHBallabgarh (5)O  22:58+823:00+102m--1-429.435203mNRFaridabad, Haryana
24PWLPalwal (8)X  23:36+023:38+22m--1-408.285200mNRPalwal, Haryana
25KSVKosi Kalan (3)O  00:08+1700:10+172m22-365.729189mNCRKosi Kalan, Uttar Pradesh
26MTJMathura Junction (10)X  01:35-201:45+110m32-324.380179mNCRMathura, Uttar Pradesh
27BTEBharatpur Junction (5)  02:10+702:15+65m--2-290.784174mWCRBharatpur, Rajasthan
28BXNBayana Junction (3)XO  02:45+802:47+102m--2-248.874198mWCRBayana, Rajasthan
29FSPFateh SinghpuraO  03:03+1103:05+132m--2-229.179223mWCRState Highway 1, Rajasthan
30HANHindaun City (2)  03:15+1503:17+172m--2-215.968230mWCRKarauli, Rajasthan
31SMBJShri Mahabirji (3)O  03:26+1803:28+182m--2-205.749240mWCRKarauli, Rajasthan
32GGCGangapur City (3)  04:10+504:20+610m--2-171.664270mWCRGangapur, Rajasthan
33NNWNarayanpur Tatwara (2)X  04:36+704:38+72m--2-154.784256mWCRSawai Madhopur, Rajasthan
34MLZMalarnaX  04:50+904:52+102m--2-137.965236mWCRSawai Madhopur, Rajasthan
35SWMSawai Madhopur Junction (4)XO  05:20+1005:25+115m--2-107.795266mWCRSawai Madhopur, Rajasthan
36IDGIndargarh Sumerganj Mandi (2)X  05:48+1605:50+182m--2-71.482247mWCRIndargarh, Rajasthan
37LKELakheri (3)  05:58+2006:00+202m--2-60.474228mWCRBundi, Rajasthan
38KPTNKeshorai PatanX  06:38+2006:40+232m--2-13.460243mWCRSH 33, Rajasthan
39GQLGurla  06:48+2806:50+312m--2-5.48251mWCRSH 33, Rajasthan
40KOTA»Kota Junction (5)»X07:30+807:50+1320m220.051256mWCRKota, Rajasthan
41DKNTDakaniya Talav (2)  08:01+2008:03+222m229.385278mWCRKota, Rajasthan
42DARADaraX  08:30+2608:32+262m--247.555354mWCRDara, Rajasthan
43MKXMorak (2)X  08:48+2708:50+272m--262.242337mWCRMorak, Rajasthan
44RMARamganj Mandi Junction (3)  09:03+2409:05+272m--271.357358mWCRRamganj Mandi, Rajasthan
45JHWJhalawar Road (3)  09:18+2509:20+262m--283.655361mWCRJhalawar City, Rajasthan
46BWMBhawani Mandi (3)X  09:38+2309:40+292m--2100.176384mWCRBhawani Mandi, Madhya Pradesh
47GOHGaroth (2)X  09:58+3010:00+302m12122.826441mWCRMadhya Pradesh 458880, Madhya Pradesh
48SGZShamgarh (3)X  10:25+1710:30+215m--2133.667463mWCRMandsaur, Madhya Pradesh
49SVASuwasra (2)  10:42+2310:44+242m--2147.066450mWCRSuwasra, Madhya Pradesh
50CMUChau Mahla (3)  10:58+2511:00+272m12162.435426mWCRJhalawar, Rajasthan
51THURThuriaX  11:24+1511:26+162m--2176.621430mWCRMDR 45, Madhya Pradesh
52VMAVikramgarh Alot (2)X  11:48+511:50+112m12184.261443mWCRKota Division, Madhya Pradesh
53LNRLuni Richha  12:03+1012:05+102m--2197.528471mWCRAlote, Madhya Pradesh
54MEPMahidpur Road  12:28+012:30+32m--2208.129493mWCRGogapur, Madhya Pradesh
55NADNagda Junction (4)  13:05+013:15+310m--2225.275468mWRNagda, Madhya Pradesh
56KUHKhachrod (2)  13:26+813:28+92m--2239.057497mWRUjjain, Madhya Pradesh
57RNHRunkheraX  13:39+713:41+62m--2249.563478mWRUjjain, Madhya Pradesh
58BODBangrodX  13:48+713:50+72m--2256.824484mWRRatlam, Madhya Pradesh
59RTM•Ratlam Junction (7)•X  14:15+614:35+1120m42266.677495mWRRatlam, Madhya Pradesh
60RTIRaoti (2)  14:56+2114:58+212m--2293.571409mWRState Highway 39A, Madhya Pradesh
61BOGBhairongarh (2)  15:08+2215:10+222m--2305.451374mWRBhairongarh Railway Station, Madhya Pradesh
62BMIBamnia (2)  15:17+2315:19+232m--2311.442392mWRBamnia, Madhya Pradesh
63AGRAmargarh (2)  15:25+2315:27+222m--2315.557410mWRSH 39A, Madhya Pradesh
64PCNPanch Pipila (2)  15:37+2215:39+212m--2325.084369mWRSH 39A, Madhya Pradesh
65THDRThandla Road (2)  15:49+2415:51+232m--2338.960317mWRJhabua, Madhya Pradesh
66MGNMeghnagar (3)  15:59+2416:01+252m--2346.973317mWRJhabua, Madhya Pradesh
67ANASAnas (2)  16:13+2616:15+252m--2361.579288mWRMadhya Pradesh 389154 ?, Madhya Pradesh
68BIOBordi (2)  16:21+2716:23+262m--2369.453289mWRNational Highway 59, Gujarat
69DHDDahod (3)  16:35+2816:40+295m--2380.076313mWRDahod, Gujarat
70LMKLimkheda  17:06+3317:08+322m--2413.068205mWRLimkheda, Gujarat
71PPDPiplod Junction  17:15+3317:17+322m--2420.979209mWRPiplod, Gujarat
72SATSant Road (2)X  17:26+3317:28+322m22432.820169mWROrwara, Gujarat
73GDAGodhra Junction (3)X  18:30+618:35+85m102453.165122mWRGodhra, Gujarat
74KRSAKharsaliya (2)  18:45+1218:47+122m--2464.085107mWRPanchmahal, Gujarat
75DRLDerolX  18:56+1318:58+132m12476.76881mWRKalol, Gujarat
76CPNChampaner Road JunctionX  19:09+1419:11+142m--2489.27578mWRPanchmahal, Gujarat
77SMLASamlaya Junction (3)X  19:20+1319:22+132m--2500.44867mWRVadodara, Gujarat
78BRCVadodara Junction (7)  19:55+1820:05+1910m32527.08936mWRVadodara 390005, Gujarat
79MYGMiyagam Karjan (2)  20:25+2720:27+272m--2556.87229mWRKarjan, Gujarat
80BHBharuch Junction (5)  21:01+2321:03+232m42597.56219mWRBharuch, Gujarat
81AKVAnkleshwar Junction (4)X  21:12+2421:14+252m22606.97419mWRAnkleshwar, Gujarat
82KSBKosamba Junction (3)X21:29+2921:31+222m--2625.43230mWRKosamba, Gujarat
83STSurat (4)X  22:30+1222:38+128m22656.87119mWRSurat 395001, Gujarat
84NVSNavsari (3)  23:03+2023:05+202m--2686.47914mWRNavsari, Gujarat
85BIMBilimora Junction (4)X  23:21+2623:23+262m--2707.63611mWRBilimora, Gujarat
86BLValsad (3)  23:53+2023:55+262m32725.53815mWRValsad, Gujarat
87VAPIVapi (3)X  00:36+1300:38+152m--3751.85727mWRVapi, Gujarat
88PLGPalghar (3)  02:04+1502:06+192m--3833.33719mWRPalghar, Maharashtra
89VRVirar (8)  02:56+602:58+72m--3864.4486mWRThane, Maharashtra
90BVIMumbai Borivali (8)  03:30+403:32+62m53890.22319mWRMumbai - 400092, Maharashtra
91BDTSMumbai Bandra Terminus (5)  04:20+2-13909.0-4mWRMumbai 400050, Maharashtra
Scroll to Top
Scroll to Bottom